Terminal Aerodrome Forecast
Issued by NWS Jacksonville, FL

Home | Current Version | Previous Version | Text Only | Print | Product List | Glossary On
Versions: 1 2 3 4 5 6 7 8 9 10 11 12 13 14 15 16
736
FTUS42 KJAX 291125
TAFSSI
TAF
KSSI 291125Z 2912/3012 06009KT P6SM VCSH SCT020
     FM291500 08012G18KT P6SM VCSH SCT020 BKN035
     FM300400 08006KT P6SM SCT020 SCT250=

USA.gov is the U.S. government's official web portal to all federal, state and local government web resources and services.